sensor_id;sensor_type;location;lat;lon;timestamp;pressure;altitude;pressure_sealevel;temperature;humidity
80248;BME280;69560;52.206;21.018;2024-02-14T00:00:53;100619.70;;;7.37;59.03
80248;BME280;69560;52.206;21.018;2024-02-14T00:03:36;100622.30;;;7.33;59.04
80248;BME280;69560;52.206;21.018;2024-02-14T00:06:05;100626.09;;;7.31;59.22
80248;BME280;69560;52.206;21.018;2024-02-14T00:08:32;100625.95;;;7.31;59.17
80248;BME280;69560;52.206;21.018;2024-02-14T00:10:58;100629.36;;;7.28;59.18
80248;BME280;69560;52.206;21.018;2024-02-14T00:13:25;100634.50;;;7.26;59.18
80248;BME280;69560;52.206;21.018;2024-02-14T00:15:52;100640.27;;;7.26;59.17
80248;BME280;69560;52.206;21.018;2024-02-14T00:18:18;100640.86;;;7.27;59.12
80248;BME280;69560;52.206;21.018;2024-02-14T00:20:45;100640.67;;;7.29;59.20
80248;BME280;69560;52.206;21.018;2024-02-14T00:23:12;100643.05;;;7.29;59.23
80248;BME280;69560;52.206;21.018;2024-02-14T00:25:38;100649.60;;;7.29;59.28
80248;BME280;69560;52.206;21.018;2024-02-14T00:28:05;100650.66;;;7.26;59.11
80248;BME280;69560;52.206;21.018;2024-02-14T00:30:32;100653.85;;;7.23;59.23
80248;BME280;69560;52.206;21.018;2024-02-14T00:32:58;100651.11;;;7.22;59.42
80248;BME280;69560;52.206;21.018;2024-02-14T00:35:25;100651.56;;;7.23;59.50
80248;BME280;69560;52.206;21.018;2024-02-14T00:37:51;100655.58;;;7.23;59.49
80248;BME280;69560;52.206;21.018;2024-02-14T00:40:18;100658.77;;;7.22;59.53
80248;BME280;69560;52.206;21.018;2024-02-14T00:42:45;100659.48;;;7.22;59.61
80248;BME280;69560;52.206;21.018;2024-02-14T00:45:12;100656.18;;;7.22;59.58
80248;BME280;69560;52.206;21.018;2024-02-14T00:47:38;100653.34;;;7.18;59.49
80248;BME280;69560;52.206;21.018;2024-02-14T00:50:06;100654.38;;;7.13;59.50
80248;BME280;69560;52.206;21.018;2024-02-14T00:52:33;100656.44;;;7.11;59.62
80248;BME280;69560;52.206;21.018;2024-02-14T00:54:59;100656.11;;;7.08;59.64
80248;BME280;69560;52.206;21.018;2024-02-14T00:57:29;100655.25;;;7.09;59.82
80248;BME280;69560;52.206;21.018;2024-02-14T00:59:56;100655.02;;;7.11;59.77
80248;BME280;69560;52.206;21.018;2024-02-14T01:02:23;100655.11;;;7.13;59.68
80248;BME280;69560;52.206;21.018;2024-02-14T01:04:50;100653.06;;;7.15;59.77
80248;BME280;69560;52.206;21.018;2024-02-14T01:07:16;100652.18;;;7.17;59.69
80248;BME280;69560;52.206;21.018;2024-02-14T01:09:43;100651.69;;;7.14;59.64
80248;BME280;69560;52.206;21.018;2024-02-14T01:12:09;100658.17;;;7.15;59.77
80248;BME280;69560;52.206;21.018;2024-02-14T01:14:36;100659.13;;;7.11;59.74
80248;BME280;69560;52.206;21.018;2024-02-14T01:17:03;100663.05;;;7.09;59.72
80248;BME280;69560;52.206;21.018;2024-02-14T01:19:30;100664.87;;;7.07;59.87
80248;BME280;69560;52.206;21.018;2024-02-14T01:21:56;100665.35;;;7.03;59.82
80248;BME280;69560;52.206;21.018;2024-02-14T01:24:23;100666.55;;;6.99;59.88
80248;BME280;69560;52.206;21.018;2024-02-14T01:26:53;100663.73;;;6.96;60.02
80248;BME280;69560;52.206;21.018;2024-02-14T01:29:21;100665.89;;;6.93;59.98
80248;BME280;69560;52.206;21.018;2024-02-14T01:31:49;100666.95;;;6.90;60.00
80248;BME280;69560;52.206;21.018;2024-02-14T01:34:17;100661.86;;;6.87;60.18
80248;BME280;69560;52.206;21.018;2024-02-14T01:36:43;100661.01;;;6.85;60.16
80248;BME280;69560;52.206;21.018;2024-02-14T01:39:10;100660.15;;;6.83;60.05
80248;BME280;69560;52.206;21.018;2024-02-14T01:41:38;100661.90;;;6.82;60.15
80248;BME280;69560;52.206;21.018;2024-02-14T01:44:04;100661.05;;;6.82;60.11
80248;BME280;69560;52.206;21.018;2024-02-14T01:46:31;100660.29;;;6.79;60.13
80248;BME280;69560;52.206;21.018;2024-02-14T01:48:58;100661.08;;;6.73;60.03
80248;BME280;69560;52.206;21.018;2024-02-14T01:51:25;100660.29;;;6.66;60.01
80248;BME280;69560;52.206;21.018;2024-02-14T01:53:53;100662.72;;;6.60;60.08
80248;BME280;69560;52.206;21.018;2024-02-14T01:56:21;100665.55;;;6.58;60.37
80248;BME280;69560;52.206;21.018;2024-02-14T01:58:48;100667.08;;;6.57;60.45
80248;BME280;69560;52.206;21.018;2024-02-14T02:01:16;100669.31;;;6.55;60.60
80248;BME280;69560;52.206;21.018;2024-02-14T02:03:44;100673.21;;;6.51;60.59
80248;BME280;69560;52.206;21.018;2024-02-14T02:06:10;100671.58;;;6.48;60.61
80248;BME280;69560;52.206;21.018;2024-02-14T02:08:37;100670.66;;;6.43;60.60
80248;BME280;69560;52.206;21.018;2024-02-14T02:11:03;100674.58;;;6.38;60.75
80248;BME280;69560;52.206;21.018;2024-02-14T02:13:32;100675.64;;;6.36;60.76
80248;BME280;69560;52.206;21.018;2024-02-14T02:15:58;100677.40;;;6.33;60.63
80248;BME280;69560;52.206;21.018;2024-02-14T02:18:25;100675.60;;;6.30;60.68
80248;BME280;69560;52.206;21.018;2024-02-14T02:20:52;100677.00;;;6.26;60.67
80248;BME280;69560;52.206;21.018;2024-02-14T02:23:18;100678.66;;;6.24;60.79
80248;BME280;69560;52.206;21.018;2024-02-14T02:25:45;100680.80;;;6.23;61.02
80248;BME280;69560;52.206;21.018;2024-02-14T02:28:12;100679.70;;;6.21;61.08
80248;BME280;69560;52.206;21.018;2024-02-14T02:30:38;100683.75;;;6.22;61.28
80248;BME280;69560;52.206;21.018;2024-02-14T02:33:05;100679.35;;;6.20;61.15
80248;BME280;69560;52.206;21.018;2024-02-14T02:35:34;100679.39;;;6.15;61.28
80248;BME280;69560;52.206;21.018;2024-02-14T02:38:00;100682.80;;;6.12;61.24
80248;BME280;69560;52.206;21.018;2024-02-14T02:40:27;100685.57;;;6.07;61.16
80248;BME280;69560;52.206;21.018;2024-02-14T02:42:54;100682.51;;;5.98;61.05
80248;BME280;69560;52.206;21.018;2024-02-14T02:45:21;100683.22;;;5.90;61.01
80248;BME280;69560;52.206;21.018;2024-02-14T02:47:48;100685.91;;;5.85;60.99
80248;BME280;69560;52.206;21.018;2024-02-14T02:50:16;100690.91;;;5.80;61.09
80248;BME280;69560;52.206;21.018;2024-02-14T02:52:43;100690.07;;;5.70;60.94
80248;BME280;69560;52.206;21.018;2024-02-14T02:55:09;100697.98;;;5.60;60.91
80248;BME280;69560;52.206;21.018;2024-02-14T02:57:36;100698.20;;;5.52;61.24
80248;BME280;69560;52.206;21.018;2024-02-14T03:00:06;100697.64;;;5.42;61.29
80248;BME280;69560;52.206;21.018;2024-02-14T03:02:35;100700.93;;;5.33;61.42
80248;BME280;69560;52.206;21.018;2024-02-14T03:05:04;100694.38;;;5.24;61.63
80248;BME280;69560;52.206;21.018;2024-02-14T03:07:36;100697.31;;;5.14;62.00
80248;BME280;69560;52.206;21.018;2024-02-14T03:10:04;100701.61;;;5.11;61.98
80248;BME280;69560;52.206;21.018;2024-02-14T03:12:31;100707.48;;;5.07;62.12
80248;BME280;69560;52.206;21.018;2024-02-14T03:15:03;100709.48;;;5.05;62.17
80248;BME280;69560;52.206;21.018;2024-02-14T03:17:31;100709.48;;;5.00;62.27
80248;BME280;69560;52.206;21.018;2024-02-14T03:19:58;100711.28;;;4.95;62.32
80248;BME280;69560;52.206;21.018;2024-02-14T03:22:24;100717.23;;;4.91;62.50
80248;BME280;69560;52.206;21.018;2024-02-14T03:24:51;100724.88;;;4.87;62.73
80248;BME280;69560;52.206;21.018;2024-02-14T03:27:17;100728.71;;;4.84;62.82
80248;BME280;69560;52.206;21.018;2024-02-14T03:29:45;100731.27;;;4.83;63.01
80248;BME280;69560;52.206;21.018;2024-02-14T03:32:13;100728.23;;;4.80;62.92
80248;BME280;69560;52.206;21.018;2024-02-14T03:34:40;100727.27;;;4.78;63.12
80248;BME280;69560;52.206;21.018;2024-02-14T03:37:06;100730.08;;;4.77;63.21
80248;BME280;69560;52.206;21.018;2024-02-14T03:39:33;100728.49;;;4.76;63.30
80248;BME280;69560;52.206;21.018;2024-02-14T03:42:00;100732.57;;;4.78;63.46
80248;BME280;69560;52.206;21.018;2024-02-14T03:44:29;100734.10;;;4.80;63.65
80248;BME280;69560;52.206;21.018;2024-02-14T03:46:55;100733.69;;;4.81;63.62
80248;BME280;69560;52.206;21.018;2024-02-14T03:49:22;100736.30;;;4.80;63.47
80248;BME280;69560;52.206;21.018;2024-02-14T03:51:49;100738.08;;;4.81;63.63
80248;BME280;69560;52.206;21.018;2024-02-14T03:54:19;100739.02;;;4.85;63.75
80248;BME280;69560;52.206;21.018;2024-02-14T03:56:45;100741.54;;;4.87;63.82
80248;BME280;69560;52.206;21.018;2024-02-14T03:59:12;100738.59;;;4.85;63.79
80248;BME280;69560;52.206;21.018;2024-02-14T04:01:44;100737.67;;;4.84;63.77
80248;BME280;69560;52.206;21.018;2024-02-14T04:04:11;100740.58;;;4.84;63.83
80248;BME280;69560;52.206;21.018;2024-02-14T04:06:37;100739.73;;;4.83;63.72
80248;BME280;69560;52.206;21.018;2024-02-14T04:09:04;100736.63;;;4.84;63.78
80248;BME280;69560;52.206;21.018;2024-02-14T04:11:31;100740.31;;;4.84;63.83
80248;BME280;69560;52.206;21.018;2024-02-14T04:13:57;100743.45;;;4.83;63.94
80248;BME280;69560;52.206;21.018;2024-02-14T04:16:23;100743.52;;;4.83;63.98
80248;BME280;69560;52.206;21.018;2024-02-14T04:18:50;100745.42;;;4.80;64.07
80248;BME280;69560;52.206;21.018;2024-02-14T04:21:17;100746.87;;;4.78;64.04
80248;BME280;69560;52.206;21.018;2024-02-14T04:23:43;100747.25;;;4.78;63.99
80248;BME280;69560;52.206;21.018;2024-02-14T04:26:10;100745.67;;;4.76;64.03
80248;BME280;69560;52.206;21.018;2024-02-14T04:28:38;100747.20;;;4.74;63.99
80248;BME280;69560;52.206;21.018;2024-02-14T04:31:06;100743.98;;;4.71;64.07
80248;BME280;69560;52.206;21.018;2024-02-14T04:33:33;100744.60;;;4.70;64.23
80248;BME280;69560;52.206;21.018;2024-02-14T04:35:59;100748.98;;;4.69;64.29
80248;BME280;69560;52.206;21.018;2024-02-14T04:38:26;100748.17;;;4.66;64.29
80248;BME280;69560;52.206;21.018;2024-02-14T04:40:55;100748.33;;;4.65;64.37
80248;BME280;69560;52.206;21.018;2024-02-14T04:43:23;100750.41;;;4.63;64.32
80248;BME280;69560;52.206;21.018;2024-02-14T04:45:49;100754.60;;;4.65;64.39
80248;BME280;69560;52.206;21.018;2024-02-14T04:48:17;100757.70;;;4.65;64.43
80248;BME280;69560;52.206;21.018;2024-02-14T04:50:44;100760.48;;;4.64;64.40
80248;BME280;69560;52.206;21.018;2024-02-14T04:53:10;100758.69;;;4.63;64.43
80248;BME280;69560;52.206;21.018;2024-02-14T04:55:37;100757.84;;;4.62;64.43
80248;BME280;69560;52.206;21.018;2024-02-14T04:58:04;100760.74;;;4.65;64.81
80248;BME280;69560;52.206;21.018;2024-02-14T05:00:31;100767.02;;;4.68;64.73
80248;BME280;69560;52.206;21.018;2024-02-14T05:02:58;100769.81;;;4.66;64.35
80248;BME280;69560;52.206;21.018;2024-02-14T05:05:25;100772.39;;;4.64;64.51
80248;BME280;69560;52.206;21.018;2024-02-14T05:07:52;100770.80;;;4.67;64.63
80248;BME280;69560;52.206;21.018;2024-02-14T05:10:19;100771.90;;;4.67;64.53
80248;BME280;69560;52.206;21.018;2024-02-14T05:12:45;100770.91;;;4.69;64.71
80248;BME280;69560;52.206;21.018;2024-02-14T05:15:12;100773.36;;;4.69;64.75
80248;BME280;69560;52.206;21.018;2024-02-14T05:17:42;100768.80;;;4.69;64.74
80248;BME280;69560;52.206;21.018;2024-02-14T05:20:09;100775.48;;;4.70;64.78
80248;BME280;69560;52.206;21.018;2024-02-14T05:22:36;100774.56;;;4.72;64.74
80248;BME280;69560;52.206;21.018;2024-02-14T05:25:04;100777.58;;;4.68;64.59
80248;BME280;69560;52.206;21.018;2024-02-14T05:27:33;100780.96;;;4.66;64.46
80248;BME280;69560;52.206;21.018;2024-02-14T05:30:00;100780.46;;;4.62;64.51
80248;BME280;69560;52.206;21.018;2024-02-14T05:32:26;100781.54;;;4.58;64.58
80248;BME280;69560;52.206;21.018;2024-02-14T05:34:53;100779.58;;;4.53;64.62
80248;BME280;69560;52.206;21.018;2024-02-14T05:37:20;100787.15;;;4.51;64.76
80248;BME280;69560;52.206;21.018;2024-02-14T05:39:47;100789.78;;;4.51;64.81
80248;BME280;69560;52.206;21.018;2024-02-14T05:42:14;100789.06;;;4.51;64.63
80248;BME280;69560;52.206;21.018;2024-02-14T05:44:42;100789.99;;;4.51;64.76
80248;BME280;69560;52.206;21.018;2024-02-14T05:47:09;100789.73;;;4.49;64.87
80248;BME280;69560;52.206;21.018;2024-02-14T05:49:41;100785.23;;;4.47;64.73
80248;BME280;69560;52.206;21.018;2024-02-14T05:52:08;100785.89;;;4.47;65.00
80248;BME280;69560;52.206;21.018;2024-02-14T05:54:34;100784.52;;;4.47;65.06
80248;BME280;69560;52.206;21.018;2024-02-14T05:57:01;100787.50;;;4.48;64.95
80248;BME280;69560;52.206;21.018;2024-02-14T05:59:31;100790.33;;;4.50;64.97
80248;BME280;69560;52.206;21.018;2024-02-14T06:01:58;100797.92;;;4.51;64.94
80248;BME280;69560;52.206;21.018;2024-02-14T06:04:25;100794.88;;;4.52;64.88
80248;BME280;69560;52.206;21.018;2024-02-14T06:06:51;100796.47;;;4.52;64.94
80248;BME280;69560;52.206;21.018;2024-02-14T06:09:18;100798.16;;;4.52;65.05
80248;BME280;69560;52.206;21.018;2024-02-14T06:11:45;100797.60;;;4.52;64.99
80248;BME280;69560;52.206;21.018;2024-02-14T06:14:11;100803.13;;;4.56;65.07
80248;BME280;69560;52.206;21.018;2024-02-14T06:16:38;100801.61;;;4.61;65.00
80248;BME280;69560;52.206;21.018;2024-02-14T06:19:05;100802.86;;;4.66;64.96
80248;BME280;69560;52.206;21.018;2024-02-14T06:21:32;100804.98;;;4.71;65.21
80248;BME280;69560;52.206;21.018;2024-02-14T06:24:00;100809.40;;;4.74;65.21
80248;BME280;69560;52.206;21.018;2024-02-14T06:26:27;100810.58;;;4.80;65.12
80248;BME280;69560;52.206;21.018;2024-02-14T06:28:54;100811.61;;;4.80;64.97
80248;BME280;69560;52.206;21.018;2024-02-14T06:31:22;100815.14;;;4.81;64.85
80248;BME280;69560;52.206;21.018;2024-02-14T06:33:49;100813.23;;;4.84;65.02
80248;BME280;69560;52.206;21.018;2024-02-14T06:36:15;100814.81;;;4.89;64.93
80248;BME280;69560;52.206;21.018;2024-02-14T06:38:42;100815.48;;;4.93;64.85
80248;BME280;69560;52.206;21.018;2024-02-14T06:41:13;100814.23;;;4.99;64.88
80248;BME280;69560;52.206;21.018;2024-02-14T06:43:39;100820.70;;;5.07;65.11
80248;BME280;69560;52.206;21.018;2024-02-14T06:46:06;100816.35;;;5.18;65.07
80248;BME280;69560;52.206;21.018;2024-02-14T06:48:33;100818.95;;;5.26;65.07
80248;BME280;69560;52.206;21.018;2024-02-14T06:51:00;100818.81;;;5.31;64.80
80248;BME280;69560;52.206;21.018;2024-02-14T06:53:26;100817.73;;;5.35;64.95
80248;BME280;69560;52.206;21.018;2024-02-14T06:55:53;100818.36;;;5.42;64.90
80248;BME280;69560;52.206;21.018;2024-02-14T06:58:19;100821.85;;;5.46;64.70
80248;BME280;69560;52.206;21.018;2024-02-14T07:00:46;100823.85;;;5.47;64.43
80248;BME280;69560;52.206;21.018;2024-02-14T07:03:12;100828.79;;;5.52;64.55
80248;BME280;69560;52.206;21.018;2024-02-14T07:05:40;100828.98;;;5.58;64.40
80248;BME280;69560;52.206;21.018;2024-02-14T07:08:08;100833.44;;;5.62;64.45
80248;BME280;69560;52.206;21.018;2024-02-14T07:10:34;100831.95;;;5.69;64.50
80248;BME280;69560;52.206;21.018;2024-02-14T07:13:01;100834.30;;;5.81;64.64
80248;BME280;69560;52.206;21.018;2024-02-14T07:15:27;100836.77;;;5.95;64.71
80248;BME280;69560;52.206;21.018;2024-02-14T07:17:55;100835.05;;;6.08;64.69
80248;BME280;69560;52.206;21.018;2024-02-14T07:20:21;100830.08;;;6.23;64.66
80248;BME280;69560;52.206;21.018;2024-02-14T07:22:48;100831.72;;;6.34;64.39
80248;BME280;69560;52.206;21.018;2024-02-14T07:25:19;100832.20;;;6.47;64.22
80248;BME280;69560;52.206;21.018;2024-02-14T07:27:46;100830.45;;;6.61;64.07
80248;BME280;69560;52.206;21.018;2024-02-14T07:30:18;100832.16;;;6.75;63.97
80248;BME280;69560;52.206;21.018;2024-02-14T07:32:45;100828.06;;;6.86;63.79
80248;BME280;69560;52.206;21.018;2024-02-14T07:35:12;100827.82;;;6.98;63.80
80248;BME280;69560;52.206;21.018;2024-02-14T07:37:40;100829.22;;;7.13;63.73
80248;BME280;69560;52.206;21.018;2024-02-14T07:40:09;100824.33;;;7.28;63.70
80248;BME280;69560;52.206;21.018;2024-02-14T07:42:36;100827.67;;;7.40;63.40
80248;BME280;69560;52.206;21.018;2024-02-14T07:45:04;100825.89;;;7.49;63.15
80248;BME280;69560;52.206;21.018;2024-02-14T07:47:30;100829.88;;;7.59;63.28
80248;BME280;69560;52.206;21.018;2024-02-14T07:49:57;100835.98;;;7.71;63.12
80248;BME280;69560;52.206;21.018;2024-02-14T07:52:24;100830.40;;;7.80;62.77
80248;BME280;69560;52.206;21.018;2024-02-14T07:54:54;100832.52;;;7.89;62.68
80248;BME280;69560;52.206;21.018;2024-02-14T07:57:24;100833.78;;;8.04;62.68
80248;BME280;69560;52.206;21.018;2024-02-14T07:59:51;100829.00;;;8.11;62.23
80248;BME280;69560;52.206;21.018;2024-02-14T08:02:19;100828.06;;;8.20;62.21
80248;BME280;69560;52.206;21.018;2024-02-14T08:04:46;100831.91;;;8.33;62.15
80248;BME280;69560;52.206;21.018;2024-02-14T08:07:12;100833.45;;;8.49;62.04
80248;BME280;69560;52.206;21.018;2024-02-14T08:09:39;100829.34;;;8.64;61.91
80248;BME280;69560;52.206;21.018;2024-02-14T08:12:06;100829.38;;;8.80;61.80
80248;BME280;69560;52.206;21.018;2024-02-14T08:14:33;100831.02;;;8.97;61.59
80248;BME280;69560;52.206;21.018;2024-02-14T08:16:59;100830.96;;;9.14;61.50
80248;BME280;69560;52.206;21.018;2024-02-14T08:19:26;100826.77;;;9.33;61.43
80248;BME280;69560;52.206;21.018;2024-02-14T08:21:52;100825.58;;;9.49;61.19
80248;BME280;69560;52.206;21.018;2024-02-14T08:24:27;100833.52;;;9.70;61.05
80248;BME280;69560;52.206;21.018;2024-02-14T08:26:54;100829.34;;;9.90;60.94
80248;BME280;69560;52.206;21.018;2024-02-14T08:29:21;100827.65;;;10.12;60.70
80248;BME280;69560;52.206;21.018;2024-02-14T08:31:47;100830.55;;;10.31;60.24
80248;BME280;69560;52.206;21.018;2024-02-14T08:34:14;100831.15;;;10.47;59.95
80248;BME280;69560;52.206;21.018;2024-02-14T08:36:42;100831.02;;;10.61;59.34
80248;BME280;69560;52.206;21.018;2024-02-14T08:39:09;100832.73;;;10.77;59.00
80248;BME280;69560;52.206;21.018;2024-02-14T08:41:37;100829.74;;;10.93;58.86
80248;BME280;69560;52.206;21.018;2024-02-14T08:44:04;100832.45;;;11.14;58.43
80248;BME280;69560;52.206;21.018;2024-02-14T08:46:31;100828.80;;;11.32;58.04
80248;BME280;69560;52.206;21.018;2024-02-14T08:49:00;100827.67;;;11.79;58.47
80248;BME280;69560;52.206;21.018;2024-02-14T08:51:28;100830.42;;;12.93;59.53
80248;BME280;69560;52.206;21.018;2024-02-14T08:53:55;100834.33;;;14.58;60.78
80248;BME280;69560;52.206;21.018;2024-02-14T08:56:23;100830.41;;;16.19;60.52
80248;BME280;69560;52.206;21.018;2024-02-14T08:58:50;100829.39;;;18.01;60.31
80248;BME280;69560;52.206;21.018;2024-02-14T09:01:16;100833.83;;;19.10;58.06
80248;BME280;69560;52.206;21.018;2024-02-14T09:03:43;100834.83;;;19.18;54.70
80248;BME280;69560;52.206;21.018;2024-02-14T09:06:14;100833.68;;;19.55;53.65
80248;BME280;69560;52.206;21.018;2024-02-14T09:08:43;100834.61;;;20.77;54.45
80248;BME280;69560;52.206;21.018;2024-02-14T09:11:10;100833.71;;;22.26;53.99
80248;BME280;69560;52.206;21.018;2024-02-14T09:13:38;100837.68;;;23.57;52.73
80248;BME280;69560;52.206;21.018;2024-02-14T09:16:09;100836.64;;;24.70;50.87
80248;BME280;69560;52.206;21.018;2024-02-14T09:18:36;100838.45;;;25.38;48.72
80248;BME280;69560;52.206;21.018;2024-02-14T09:21:03;100837.53;;;26.00;47.42
80248;BME280;69560;52.206;21.018;2024-02-14T09:23:31;100833.45;;;26.53;46.57
80248;BME280;69560;52.206;21.018;2024-02-14T09:25:58;100833.52;;;26.53;44.71
80248;BME280;69560;52.206;21.018;2024-02-14T09:28:25;100829.40;;;26.00;41.97
80248;BME280;69560;52.206;21.018;2024-02-14T09:30:52;100823.70;;;25.96;42.39
80248;BME280;69560;52.206;21.018;2024-02-14T09:33:18;100822.44;;;26.09;42.16
80248;BME280;69560;52.206;21.018;2024-02-14T09:35:46;100824.76;;;25.79;40.98
80248;BME280;69560;52.206;21.018;2024-02-14T09:38:14;100825.77;;;25.46;40.20
80248;BME280;69560;52.206;21.018;2024-02-14T09:40:41;100826.54;;;25.43;39.76
80248;BME280;69560;52.206;21.018;2024-02-14T09:43:25;100821.63;;;25.21;39.12
80248;BME280;69560;52.206;21.018;2024-02-14T09:45:54;100823.68;;;25.23;38.70
80248;BME280;69560;52.206;21.018;2024-02-14T09:48:21;100818.67;;;25.12;38.02
80248;BME280;69560;52.206;21.018;2024-02-14T09:50:49;100819.98;;;24.77;37.35
80248;BME280;69560;52.206;21.018;2024-02-14T09:53:16;100821.81;;;24.66;37.81
80248;BME280;69560;52.206;21.018;2024-02-14T09:55:45;100820.17;;;24.89;37.90
80248;BME280;69560;52.206;21.018;2024-02-14T09:58:12;100822.95;;;25.41;38.01
80248;BME280;69560;52.206;21.018;2024-02-14T10:00:39;100816.75;;;25.81;37.30
80248;BME280;69560;52.206;21.018;2024-02-14T10:03:07;100815.49;;;26.33;37.05
80248;BME280;69560;52.206;21.018;2024-02-14T10:05:35;100811.40;;;26.67;36.40
80248;BME280;69560;52.206;21.018;2024-02-14T10:08:03;100813.60;;;26.82;35.96
80248;BME280;69560;52.206;21.018;2024-02-14T10:10:32;100813.98;;;26.58;34.63
80248;BME280;69560;52.206;21.018;2024-02-14T10:13:03;100811.11;;;25.91;33.16
80248;BME280;69560;52.206;21.018;2024-02-14T10:15:31;100805.87;;;25.19;33.53
80248;BME280;69560;52.206;21.018;2024-02-14T10:17:58;100804.98;;;24.74;34.24
80248;BME280;69560;52.206;21.018;2024-02-14T10:20:25;100806.33;;;24.63;34.29
80248;BME280;69560;52.206;21.018;2024-02-14T10:23:00;100801.92;;;24.84;34.26
80248;BME280;69560;52.206;21.018;2024-02-14T10:25:28;100802.37;;;25.07;34.48
80248;BME280;69560;52.206;21.018;2024-02-14T10:27:55;100802.06;;;25.22;33.96
80248;BME280;69560;52.206;21.018;2024-02-14T10:30:21;100799.44;;;25.79;34.45
80248;BME280;69560;52.206;21.018;2024-02-14T10:32:51;100799.59;;;26.19;33.62
80248;BME280;69560;52.206;21.018;2024-02-14T10:35:20;100798.69;;;26.41;33.71
80248;BME280;69560;52.206;21.018;2024-02-14T10:37:47;100801.73;;;26.51;33.05
80248;BME280;69560;52.206;21.018;2024-02-14T10:40:15;100797.69;;;26.64;32.54
80248;BME280;69560;52.206;21.018;2024-02-14T10:42:41;100794.64;;;26.82;32.27
80248;BME280;69560;52.206;21.018;2024-02-14T10:45:08;100793.92;;;27.09;32.29
80248;BME280;69560;52.206;21.018;2024-02-14T10:47:35;100794.04;;;27.14;31.89
80248;BME280;69560;52.206;21.018;2024-02-14T10:50:05;100788.94;;;26.84;31.26
80248;BME280;69560;52.206;21.018;2024-02-14T10:52:34;100791.42;;;26.51;31.05
80248;BME280;69560;52.206;21.018;2024-02-14T10:55:03;100787.08;;;25.72;30.43
80248;BME280;69560;52.206;21.018;2024-02-14T10:57:30;100788.25;;;24.69;30.04
80248;BME280;69560;52.206;21.018;2024-02-14T11:00:06;100787.20;;;23.54;29.67
80248;BME280;69560;52.206;21.018;2024-02-14T11:02:36;100787.02;;;23.25;30.59
80248;BME280;69560;52.206;21.018;2024-02-14T11:05:03;100786.91;;;22.87;30.61
80248;BME280;69560;52.206;21.018;2024-02-14T11:07:31;100783.56;;;22.01;30.40
80248;BME280;69560;52.206;21.018;2024-02-14T11:12:35;100779.81;;;21.40;31.31
80248;BME280;69560;52.206;21.018;2024-02-14T11:15:19;100772.23;;;20.82;31.00
80248;BME280;69560;52.206;21.018;2024-02-14T11:17:47;100771.48;;;20.66;31.47
80248;BME280;69560;52.206;21.018;2024-02-14T11:20:20;100771.94;;;20.36;31.60
80248;BME280;69560;52.206;21.018;2024-02-14T11:23:01;100771.98;;;21.11;32.37
80248;BME280;69560;52.206;21.018;2024-02-14T11:25:31;100769.67;;;20.97;31.75
80248;BME280;69560;52.206;21.018;2024-02-14T11:27:58;100769.94;;;20.89;31.62
80248;BME280;69560;52.206;21.018;2024-02-14T11:30:34;100770.29;;;21.36;32.28
80248;BME280;69560;52.206;21.018;2024-02-14T11:33:13;100762.15;;;21.30;32.40
80248;BME280;69560;52.206;21.018;2024-02-14T11:35:41;100765.19;;;20.78;31.80
80248;BME280;69560;52.206;21.018;2024-02-14T11:38:09;100762.40;;;20.39;31.69
80248;BME280;69560;52.206;21.018;2024-02-14T11:40:36;100759.48;;;20.12;31.76
80248;BME280;69560;52.206;21.018;2024-02-14T11:43:11;100762.65;;;20.02;31.86
80248;BME280;69560;52.206;21.018;2024-02-14T11:45:38;100756.11;;;19.97;31.47
80248;BME280;69560;52.206;21.018;2024-02-14T11:48:12;100753.43;;;20.07;31.30
80248;BME280;69560;52.206;21.018;2024-02-14T11:50:39;100759.13;;;20.78;31.38
80248;BME280;69560;52.206;21.018;2024-02-14T11:53:07;100753.11;;;22.02;31.95
80248;BME280;69560;52.206;21.018;2024-02-14T11:55:38;100754.75;;;23.44;32.18
80248;BME280;69560;52.206;21.018;2024-02-14T11:58:09;100757.19;;;24.57;31.51
80248;BME280;69560;52.206;21.018;2024-02-14T12:00:37;100758.48;;;25.47;30.93
80248;BME280;69560;52.206;21.018;2024-02-14T12:03:07;100756.52;;;26.28;30.47
80248;BME280;69560;52.206;21.018;2024-02-14T12:05:36;100756.44;;;26.90;29.66
80248;BME280;69560;52.206;21.018;2024-02-14T12:08:05;100751.42;;;27.23;28.98
80248;BME280;69560;52.206;21.018;2024-02-14T12:10:33;100750.91;;;27.82;28.61
80248;BME280;69560;52.206;21.018;2024-02-14T12:13:11;100751.58;;;28.23;28.33
80248;BME280;69560;52.206;21.018;2024-02-14T12:15:40;100752.30;;;28.47;27.52
80248;BME280;69560;52.206;21.018;2024-02-14T12:18:10;100754.22;;;28.36;27.54
80248;BME280;69560;52.206;21.018;2024-02-14T12:20:37;100754.55;;;28.26;27.11
80248;BME280;69560;52.206;21.018;2024-02-14T12:23:05;100754.14;;;28.48;26.83
80248;BME280;69560;52.206;21.018;2024-02-14T12:25:33;100750.30;;;28.83;26.50
80248;BME280;69560;52.206;21.018;2024-02-14T12:28:00;100747.54;;;29.24;26.29
80248;BME280;69560;52.206;21.018;2024-02-14T12:30:43;100747.30;;;29.76;26.26
80248;BME280;69560;52.206;21.018;2024-02-14T12:33:15;100745.35;;;30.13;25.67
80248;BME280;69560;52.206;21.018;2024-02-14T12:35:46;100748.15;;;30.29;25.05
80248;BME280;69560;52.206;21.018;2024-02-14T12:38:14;100737.84;;;30.42;24.73
80248;BME280;69560;52.206;21.018;2024-02-14T12:40:42;100740.80;;;30.59;24.48
80248;BME280;69560;52.206;21.018;2024-02-14T12:43:11;100733.83;;;30.55;24.14
80248;BME280;69560;52.206;21.018;2024-02-14T12:45:38;100734.58;;;30.72;24.26
80248;BME280;69560;52.206;21.018;2024-02-14T12:48:09;100741.09;;;31.09;24.35
80248;BME280;69560;52.206;21.018;2024-02-14T12:50:36;100742.83;;;31.12;23.88
80248;BME280;69560;52.206;21.018;2024-02-14T12:53:06;100747.23;;;30.74;23.02